sensor_id;sensor_type;location;lat;lon;timestamp;P1;durP1;ratioP1;P2;durP2;ratioP2
64710;SDS011;51139;45.626;6.850;2023-06-05T00:00:23;3.55;;;2.10;;
64710;SDS011;51139;45.626;6.850;2023-06-05T00:02:49;3.35;;;1.75;;
64710;SDS011;51139;45.626;6.850;2023-06-05T00:05:14;4.30;;;1.80;;
64710;SDS011;51139;45.626;6.850;2023-06-05T00:07:40;3.40;;;1.88;;
64710;SDS011;51139;45.626;6.850;2023-06-05T00:10:07;2.97;;;1.80;;
64710;SDS011;51139;45.626;6.850;2023-06-05T00:12:33;3.40;;;2.10;;
64710;SDS011;51139;45.626;6.850;2023-06-05T00:14:59;2.28;;;1.52;;
64710;SDS011;51139;45.626;6.850;2023-06-05T00:17:26;3.58;;;2.00;;
64710;SDS011;51139;45.626;6.850;2023-06-05T00:19:52;3.22;;;1.92;;
64710;SDS011;51139;45.626;6.850;2023-06-05T00:22:17;2.97;;;2.00;;
64710;SDS011;51139;45.626;6.850;2023-06-05T00:24:43;2.92;;;2.15;;
64710;SDS011;51139;45.626;6.850;2023-06-05T00:27:08;3.38;;;2.25;;
64710;SDS011;51139;45.626;6.850;2023-06-05T00:29:34;2.83;;;1.88;;
64710;SDS011;51139;45.626;6.850;2023-06-05T00:31:59;3.05;;;2.00;;
64710;SDS011;51139;45.626;6.850;2023-06-05T00:34:24;2.80;;;1.90;;
64710;SDS011;51139;45.626;6.850;2023-06-05T00:36:51;3.33;;;1.92;;
64710;SDS011;51139;45.626;6.850;2023-06-05T00:39:17;2.63;;;1.90;;
64710;SDS011;51139;45.626;6.850;2023-06-05T00:41:45;3.95;;;2.08;;
64710;SDS011;51139;45.626;6.850;2023-06-05T00:44:11;3.40;;;2.15;;
64710;SDS011;51139;45.626;6.850;2023-06-05T00:46:37;3.00;;;1.90;;
64710;SDS011;51139;45.626;6.850;2023-06-05T00:49:03;3.72;;;2.10;;
64710;SDS011;51139;45.626;6.850;2023-06-05T00:51:29;2.53;;;1.90;;
64710;SDS011;51139;45.626;6.850;2023-06-05T00:53:55;3.67;;;1.80;;
64710;SDS011;51139;45.626;6.850;2023-06-05T00:56:20;2.60;;;2.03;;
64710;SDS011;51139;45.626;6.850;2023-06-05T00:58:47;2.58;;;1.85;;
64710;SDS011;51139;45.626;6.850;2023-06-05T01:01:13;3.40;;;1.75;;
64710;SDS011;51139;45.626;6.850;2023-06-05T01:03:40;3.00;;;1.67;;
64710;SDS011;51139;45.626;6.850;2023-06-05T01:06:06;2.78;;;1.73;;
64710;SDS011;51139;45.626;6.850;2023-06-05T01:08:32;2.83;;;1.80;;
64710;SDS011;51139;45.626;6.850;2023-06-05T01:11:22;2.47;;;1.80;;
64710;SDS011;51139;45.626;6.850;2023-06-05T01:13:54;2.55;;;1.40;;
64710;SDS011;51139;45.626;6.850;2023-06-05T01:16:43;4.15;;;1.90;;
64710;SDS011;51139;45.626;6.850;2023-06-05T01:19:13;3.13;;;1.70;;
64710;SDS011;51139;45.626;6.850;2023-06-05T01:21:39;2.55;;;1.48;;
64710;SDS011;51139;45.626;6.850;2023-06-05T01:24:05;2.20;;;1.48;;
64710;SDS011;51139;45.626;6.850;2023-06-05T01:30:15;2.50;;;1.60;;
64710;SDS011;51139;45.626;6.850;2023-06-05T01:32:40;3.03;;;1.73;;
64710;SDS011;51139;45.626;6.850;2023-06-05T01:35:18;2.40;;;1.70;;
64710;SDS011;51139;45.626;6.850;2023-06-05T01:37:45;2.30;;;1.60;;
64710;SDS011;51139;45.626;6.850;2023-06-05T01:40:14;1.77;;;1.42;;
64710;SDS011;51139;45.626;6.850;2023-06-05T01:42:41;2.53;;;1.73;;
64710;SDS011;51139;45.626;6.850;2023-06-05T01:45:08;3.03;;;1.80;;
64710;SDS011;51139;45.626;6.850;2023-06-05T01:47:35;2.65;;;1.63;;
64710;SDS011;51139;45.626;6.850;2023-06-05T01:50:02;2.20;;;1.55;;
64710;SDS011;51139;45.626;6.850;2023-06-05T01:52:28;1.65;;;1.30;;
64710;SDS011;51139;45.626;6.850;2023-06-05T01:54:54;2.50;;;1.65;;
64710;SDS011;51139;45.626;6.850;2023-06-05T01:57:20;3.00;;;1.50;;
64710;SDS011;51139;45.626;6.850;2023-06-05T01:59:46;4.03;;;1.98;;
64710;SDS011;51139;45.626;6.850;2023-06-05T02:02:11;2.60;;;1.80;;
64710;SDS011;51139;45.626;6.850;2023-06-05T02:04:38;2.58;;;1.88;;
64710;SDS011;51139;45.626;6.850;2023-06-05T02:07:03;2.20;;;1.50;;
64710;SDS011;51139;45.626;6.850;2023-06-05T02:09:30;3.25;;;1.70;;
64710;SDS011;51139;45.626;6.850;2023-06-05T02:11:58;2.38;;;1.42;;
64710;SDS011;51139;45.626;6.850;2023-06-05T02:14:29;1.90;;;1.40;;
64710;SDS011;51139;45.626;6.850;2023-06-05T02:16:56;2.83;;;1.60;;
64710;SDS011;51139;45.626;6.850;2023-06-05T02:19:23;1.88;;;1.33;;
64710;SDS011;51139;45.626;6.850;2023-06-05T02:21:48;1.75;;;1.27;;
64710;SDS011;51139;45.626;6.850;2023-06-05T02:24:16;1.77;;;1.30;;
64710;SDS011;51139;45.626;6.850;2023-06-05T02:26:43;2.33;;;1.45;;
64710;SDS011;51139;45.626;6.850;2023-06-05T02:29:09;1.95;;;1.35;;
64710;SDS011;51139;45.626;6.850;2023-06-05T02:31:34;2.65;;;1.40;;
64710;SDS011;51139;45.626;6.850;2023-06-05T02:34:02;3.67;;;1.30;;
64710;SDS011;51139;45.626;6.850;2023-06-05T02:36:27;2.63;;;1.67;;
64710;SDS011;51139;45.626;6.850;2023-06-05T02:39:01;2.30;;;1.38;;
64710;SDS011;51139;45.626;6.850;2023-06-05T02:41:29;1.85;;;1.27;;
64710;SDS011;51139;45.626;6.850;2023-06-05T02:43:55;1.92;;;1.40;;
64710;SDS011;51139;45.626;6.850;2023-06-05T02:46:21;2.28;;;1.40;;
64710;SDS011;51139;45.626;6.850;2023-06-05T02:48:47;2.70;;;1.67;;
64710;SDS011;51139;45.626;6.850;2023-06-05T02:51:13;3.22;;;1.90;;
64710;SDS011;51139;45.626;6.850;2023-06-05T02:53:38;2.63;;;1.70;;
64710;SDS011;51139;45.626;6.850;2023-06-05T02:56:04;1.90;;;1.38;;
64710;SDS011;51139;45.626;6.850;2023-06-05T02:58:30;3.28;;;1.60;;
64710;SDS011;51139;45.626;6.850;2023-06-05T03:00:58;4.55;;;2.40;;
64710;SDS011;51139;45.626;6.850;2023-06-05T03:03:29;2.80;;;2.22;;
64710;SDS011;51139;45.626;6.850;2023-06-05T03:05:58;2.83;;;1.60;;
64710;SDS011;51139;45.626;6.850;2023-06-05T03:08:32;2.42;;;1.40;;
64710;SDS011;51139;45.626;6.850;2023-06-05T03:11:00;2.42;;;1.52;;
64710;SDS011;51139;45.626;6.850;2023-06-05T03:13:26;1.80;;;1.30;;
64710;SDS011;51139;45.626;6.850;2023-06-05T03:15:53;3.38;;;1.38;;
64710;SDS011;51139;45.626;6.850;2023-06-05T03:18:22;2.42;;;1.60;;
64710;SDS011;51139;45.626;6.850;2023-06-05T03:20:49;3.25;;;1.52;;
64710;SDS011;51139;45.626;6.850;2023-06-05T03:23:21;2.95;;;1.60;;
64710;SDS011;51139;45.626;6.850;2023-06-05T03:25:53;4.13;;;1.83;;
64710;SDS011;51139;45.626;6.850;2023-06-05T03:28:20;2.10;;;1.50;;
64710;SDS011;51139;45.626;6.850;2023-06-05T03:30:46;2.20;;;1.60;;
64710;SDS011;51139;45.626;6.850;2023-06-05T03:33:12;2.38;;;1.40;;
64710;SDS011;51139;45.626;6.850;2023-06-05T03:35:39;2.28;;;1.60;;
64710;SDS011;51139;45.626;6.850;2023-06-05T03:38:05;2.45;;;1.60;;
64710;SDS011;51139;45.626;6.850;2023-06-05T03:40:30;2.60;;;1.40;;
64710;SDS011;51139;45.626;6.850;2023-06-05T03:42:56;2.60;;;1.60;;
64710;SDS011;51139;45.626;6.850;2023-06-05T03:45:21;2.38;;;1.77;;
64710;SDS011;51139;45.626;6.850;2023-06-05T03:47:47;3.50;;;1.65;;
64710;SDS011;51139;45.626;6.850;2023-06-05T03:50:13;1.98;;;1.48;;
64710;SDS011;51139;45.626;6.850;2023-06-05T03:52:40;2.95;;;1.90;;
64710;SDS011;51139;45.626;6.850;2023-06-05T03:55:06;2.70;;;1.52;;
64710;SDS011;51139;45.626;6.850;2023-06-05T03:57:36;2.53;;;1.45;;
64710;SDS011;51139;45.626;6.850;2023-06-05T04:00:04;3.22;;;1.95;;
64710;SDS011;51139;45.626;6.850;2023-06-05T04:02:34;1.95;;;1.40;;
64710;SDS011;51139;45.626;6.850;2023-06-05T04:05:00;2.55;;;1.80;;
64710;SDS011;51139;45.626;6.850;2023-06-05T04:07:26;2.70;;;1.75;;
64710;SDS011;51139;45.626;6.850;2023-06-05T04:09:51;2.63;;;1.60;;
64710;SDS011;51139;45.626;6.850;2023-06-05T04:12:16;4.93;;;1.92;;
64710;SDS011;51139;45.626;6.850;2023-06-05T04:14:44;2.58;;;2.00;;
64710;SDS011;51139;45.626;6.850;2023-06-05T04:17:11;3.45;;;1.90;;
64710;SDS011;51139;45.626;6.850;2023-06-05T04:19:38;2.97;;;1.95;;
64710;SDS011;51139;45.626;6.850;2023-06-05T04:22:03;3.03;;;2.15;;
64710;SDS011;51139;45.626;6.850;2023-06-05T04:24:28;4.32;;;2.10;;
64710;SDS011;51139;45.626;6.850;2023-06-05T04:26:54;3.35;;;2.35;;
64710;SDS011;51139;45.626;6.850;2023-06-05T04:29:20;3.78;;;2.00;;
64710;SDS011;51139;45.626;6.850;2023-06-05T04:31:46;2.60;;;1.80;;
64710;SDS011;51139;45.626;6.850;2023-06-05T04:34:15;2.50;;;1.75;;
64710;SDS011;51139;45.626;6.850;2023-06-05T04:36:43;2.70;;;1.90;;
64710;SDS011;51139;45.626;6.850;2023-06-05T04:39:08;2.78;;;2.15;;
64710;SDS011;51139;45.626;6.850;2023-06-05T04:41:42;2.90;;;1.83;;
64710;SDS011;51139;45.626;6.850;2023-06-05T04:44:14;2.88;;;1.88;;
64710;SDS011;51139;45.626;6.850;2023-06-05T04:46:45;3.33;;;2.00;;
64710;SDS011;51139;45.626;6.850;2023-06-05T04:49:14;2.60;;;1.85;;
64710;SDS011;51139;45.626;6.850;2023-06-05T04:51:41;3.28;;;1.90;;
64710;SDS011;51139;45.626;6.850;2023-06-05T04:54:08;3.10;;;1.60;;
64710;SDS011;51139;45.626;6.850;2023-06-05T04:56:34;2.78;;;1.40;;
64710;SDS011;51139;45.626;6.850;2023-06-05T04:59:00;1.55;;;1.10;;
64710;SDS011;51139;45.626;6.850;2023-06-05T05:01:27;1.95;;;1.48;;
64710;SDS011;51139;45.626;6.850;2023-06-05T05:03:53;2.53;;;1.60;;
64710;SDS011;51139;45.626;6.850;2023-06-05T05:06:19;4.10;;;1.90;;
64710;SDS011;51139;45.626;6.850;2023-06-05T05:08:46;2.60;;;1.75;;
64710;SDS011;51139;45.626;6.850;2023-06-05T05:11:15;3.35;;;1.80;;
64710;SDS011;51139;45.626;6.850;2023-06-05T05:13:41;2.95;;;1.50;;
64710;SDS011;51139;45.626;6.850;2023-06-05T05:16:07;2.80;;;1.55;;
64710;SDS011;51139;45.626;6.850;2023-06-05T05:18:40;2.97;;;1.90;;
64710;SDS011;51139;45.626;6.850;2023-06-05T05:21:06;3.75;;;2.05;;
64710;SDS011;51139;45.626;6.850;2023-06-05T05:23:32;2.78;;;1.70;;
64710;SDS011;51139;45.626;6.850;2023-06-05T05:25:58;3.38;;;1.85;;
64710;SDS011;51139;45.626;6.850;2023-06-05T05:28:24;3.35;;;1.77;;
64710;SDS011;51139;45.626;6.850;2023-06-05T05:30:51;4.15;;;2.70;;
64710;SDS011;51139;45.626;6.850;2023-06-05T05:33:17;3.25;;;2.50;;
64710;SDS011;51139;45.626;6.850;2023-06-05T05:35:42;4.30;;;2.10;;
64710;SDS011;51139;45.626;6.850;2023-06-05T05:38:09;3.50;;;2.33;;
64710;SDS011;51139;45.626;6.850;2023-06-05T05:40:34;4.72;;;2.40;;
64710;SDS011;51139;45.626;6.850;2023-06-05T05:43:00;4.18;;;2.10;;
64710;SDS011;51139;45.626;6.850;2023-06-05T05:45:25;2.90;;;2.00;;
64710;SDS011;51139;45.626;6.850;2023-06-05T05:47:51;2.17;;;1.67;;
64710;SDS011;51139;45.626;6.850;2023-06-05T05:50:16;2.60;;;1.77;;
64710;SDS011;51139;45.626;6.850;2023-06-05T05:52:41;4.65;;;1.90;;
64710;SDS011;51139;45.626;6.850;2023-06-05T05:55:08;2.75;;;1.77;;
64710;SDS011;51139;45.626;6.850;2023-06-05T05:57:33;3.58;;;2.35;;
64710;SDS011;51139;45.626;6.850;2023-06-05T05:59:59;3.72;;;1.80;;
64710;SDS011;51139;45.626;6.850;2023-06-05T06:02:25;2.85;;;2.08;;
64710;SDS011;51139;45.626;6.850;2023-06-05T06:04:50;2.38;;;1.80;;
64710;SDS011;51139;45.626;6.850;2023-06-05T06:07:16;2.97;;;1.60;;
64710;SDS011;51139;45.626;6.850;2023-06-05T06:09:41;2.65;;;1.60;;
64710;SDS011;51139;45.626;6.850;2023-06-05T06:12:07;2.33;;;1.60;;
64710;SDS011;51139;45.626;6.850;2023-06-05T06:14:33;1.80;;;1.40;;
64710;SDS011;51139;45.626;6.850;2023-06-05T06:17:00;3.72;;;1.30;;
64710;SDS011;51139;45.626;6.850;2023-06-05T06:19:26;2.60;;;1.80;;
64710;SDS011;51139;45.626;6.850;2023-06-05T06:21:52;2.60;;;1.67;;
64710;SDS011;51139;45.626;6.850;2023-06-05T06:24:18;2.63;;;1.65;;
64710;SDS011;51139;45.626;6.850;2023-06-05T06:26:47;2.75;;;1.50;;
64710;SDS011;51139;45.626;6.850;2023-06-05T06:29:23;4.00;;;1.75;;
64710;SDS011;51139;45.626;6.850;2023-06-05T06:31:50;4.75;;;1.45;;
64710;SDS011;51139;45.626;6.850;2023-06-05T06:34:16;2.03;;;1.40;;
64710;SDS011;51139;45.626;6.850;2023-06-05T06:36:41;1.48;;;1.33;;
64710;SDS011;51139;45.626;6.850;2023-06-05T06:39:09;3.65;;;1.38;;
64710;SDS011;51139;45.626;6.850;2023-06-05T06:41:35;2.47;;;1.55;;
64710;SDS011;51139;45.626;6.850;2023-06-05T06:44:01;4.53;;;1.50;;
64710;SDS011;51139;45.626;6.850;2023-06-05T06:46:28;2.53;;;1.30;;
64710;SDS011;51139;45.626;6.850;2023-06-05T06:48:53;2.97;;;1.70;;
64710;SDS011;51139;45.626;6.850;2023-06-05T06:51:19;1.63;;;1.30;;
64710;SDS011;51139;45.626;6.850;2023-06-05T06:53:47;2.30;;;1.50;;
64710;SDS011;51139;45.626;6.850;2023-06-05T06:56:12;1.90;;;1.20;;
64710;SDS011;51139;45.626;6.850;2023-06-05T06:58:40;3.53;;;1.33;;
64710;SDS011;51139;45.626;6.850;2023-06-05T07:01:05;1.67;;;1.33;;
64710;SDS011;51139;45.626;6.850;2023-06-05T07:03:31;1.80;;;1.38;;
64710;SDS011;51139;45.626;6.850;2023-06-05T07:05:56;1.75;;;1.40;;
64710;SDS011;51139;45.626;6.850;2023-06-05T07:08:22;2.17;;;1.48;;
64710;SDS011;51139;45.626;6.850;2023-06-05T07:10:47;1.80;;;1.40;;
64710;SDS011;51139;45.626;6.850;2023-06-05T07:13:13;1.77;;;1.30;;
64710;SDS011;51139;45.626;6.850;2023-06-05T07:15:38;1.80;;;1.20;;
64710;SDS011;51139;45.626;6.850;2023-06-05T07:18:03;2.53;;;1.35;;
64710;SDS011;51139;45.626;6.850;2023-06-05T07:20:29;3.00;;;1.40;;
64710;SDS011;51139;45.626;6.850;2023-06-05T07:22:54;2.38;;;1.52;;
64710;SDS011;51139;45.626;6.850;2023-06-05T07:25:20;3.05;;;1.70;;
64710;SDS011;51139;45.626;6.850;2023-06-05T07:27:49;1.65;;;1.40;;
64710;SDS011;51139;45.626;6.850;2023-06-05T07:30:15;2.50;;;1.70;;
64710;SDS011;51139;45.626;6.850;2023-06-05T07:32:41;2.40;;;1.50;;
64710;SDS011;51139;45.626;6.850;2023-06-05T07:35:07;2.47;;;1.83;;
64710;SDS011;51139;45.626;6.850;2023-06-05T07:37:34;2.58;;;1.60;;
64710;SDS011;51139;45.626;6.850;2023-06-05T07:39:59;2.83;;;1.70;;
64710;SDS011;51139;45.626;6.850;2023-06-05T07:42:25;2.20;;;1.70;;
64710;SDS011;51139;45.626;6.850;2023-06-05T07:44:50;1.85;;;1.38;;
64710;SDS011;51139;45.626;6.850;2023-06-05T07:47:16;2.67;;;1.70;;
64710;SDS011;51139;45.626;6.850;2023-06-05T07:49:41;1.50;;;1.20;;
64710;SDS011;51139;45.626;6.850;2023-06-05T07:52:07;2.42;;;1.77;;
64710;SDS011;51139;45.626;6.850;2023-06-05T07:54:32;2.28;;;1.60;;
64710;SDS011;51139;45.626;6.850;2023-06-05T07:56:57;2.10;;;1.48;;
64710;SDS011;51139;45.626;6.850;2023-06-05T07:59:23;2.80;;;1.70;;
64710;SDS011;51139;45.626;6.850;2023-06-05T08:01:52;1.85;;;1.27;;
64710;SDS011;51139;45.626;6.850;2023-06-05T08:04:19;2.33;;;1.45;;
64710;SDS011;51139;45.626;6.850;2023-06-05T08:06:45;3.15;;;1.50;;
64710;SDS011;51139;45.626;6.850;2023-06-05T08:09:10;1.95;;;1.30;;
64710;SDS011;51139;45.626;6.850;2023-06-05T08:11:37;4.35;;;1.40;;
64710;SDS011;51139;45.626;6.850;2023-06-05T08:14:04;1.92;;;1.30;;
64710;SDS011;51139;45.626;6.850;2023-06-05T08:16:33;3.10;;;1.50;;
64710;SDS011;51139;45.626;6.850;2023-06-05T08:19:00;1.85;;;1.35;;
64710;SDS011;51139;45.626;6.850;2023-06-05T08:21:26;1.98;;;1.30;;
64710;SDS011;51139;45.626;6.850;2023-06-05T08:23:51;1.98;;;1.33;;
64710;SDS011;51139;45.626;6.850;2023-06-05T08:26:20;1.70;;;1.20;;
64710;SDS011;51139;45.626;6.850;2023-06-05T08:28:46;2.22;;;1.30;;
64710;SDS011;51139;45.626;6.850;2023-06-05T08:31:12;1.63;;;1.20;;
64710;SDS011;51139;45.626;6.850;2023-06-05T08:33:38;2.55;;;1.50;;
64710;SDS011;51139;45.626;6.850;2023-06-05T08:36:06;1.80;;;1.40;;
64710;SDS011;51139;45.626;6.850;2023-06-05T08:38:32;2.22;;;1.30;;
64710;SDS011;51139;45.626;6.850;2023-06-05T08:41:05;2.30;;;1.30;;
64710;SDS011;51139;45.626;6.850;2023-06-05T08:43:38;2.10;;;1.35;;
64710;SDS011;51139;45.626;6.850;2023-06-05T08:46:05;1.52;;;1.30;;
64710;SDS011;51139;45.626;6.850;2023-06-05T08:48:41;1.48;;;1.00;;
64710;SDS011;51139;45.626;6.850;2023-06-05T08:51:11;1.52;;;0.93;;
64710;SDS011;51139;45.626;6.850;2023-06-05T08:53:42;1.95;;;1.20;;
64710;SDS011;51139;45.626;6.850;2023-06-05T08:56:12;1.52;;;1.10;;
64710;SDS011;51139;45.626;6.850;2023-06-05T08:58:38;1.60;;;1.10;;
64710;SDS011;51139;45.626;6.850;2023-06-05T09:01:04;1.55;;;1.20;;
64710;SDS011;51139;45.626;6.850;2023-06-05T09:03:29;1.90;;;1.38;;
64710;SDS011;51139;45.626;6.850;2023-06-05T09:05:57;7.88;;;1.58;;
64710;SDS011;51139;45.626;6.850;2023-06-05T09:08:29;1.80;;;1.35;;
64710;SDS011;51139;45.626;6.850;2023-06-05T09:13:46;1.40;;;0.90;;
64710;SDS011;51139;45.626;6.850;2023-06-05T09:16:12;1.48;;;1.10;;
64710;SDS011;51139;45.626;6.850;2023-06-05T09:18:50;1.40;;;1.10;;
64710;SDS011;51139;45.626;6.850;2023-06-05T09:21:17;1.52;;;1.10;;
64710;SDS011;51139;45.626;6.850;2023-06-05T09:23:43;2.40;;;1.00;;
64710;SDS011;51139;45.626;6.850;2023-06-05T09:26:09;2.35;;;1.10;;
64710;SDS011;51139;45.626;6.850;2023-06-05T09:28:37;1.50;;;1.20;;
64710;SDS011;51139;45.626;6.850;2023-06-05T09:31:18;2.35;;;1.10;;
64710;SDS011;51139;45.626;6.850;2023-06-05T09:33:44;1.58;;;1.00;;
64710;SDS011;51139;45.626;6.850;2023-06-05T09:36:19;1.17;;;0.90;;
64710;SDS011;51139;45.626;6.850;2023-06-05T09:38:44;1.58;;;1.00;;
64710;SDS011;51139;45.626;6.850;2023-06-05T09:41:11;1.88;;;1.02;;
64710;SDS011;51139;45.626;6.850;2023-06-05T09:43:39;2.13;;;1.30;;
64710;SDS011;51139;45.626;6.850;2023-06-05T09:46:11;2.13;;;1.10;;
64710;SDS011;51139;45.626;6.850;2023-06-05T09:48:38;3.35;;;1.48;;
64710;SDS011;51139;45.626;6.850;2023-06-05T09:51:14;2.08;;;1.15;;
64710;SDS011;51139;45.626;6.850;2023-06-05T09:53:47;1.35;;;1.00;;
64710;SDS011;51139;45.626;6.850;2023-06-05T09:56:17;1.20;;;1.00;;
64710;SDS011;51139;45.626;6.850;2023-06-05T10:01:11;3.55;;;1.10;;
64710;SDS011;51139;45.626;6.850;2023-06-05T10:03:42;1.10;;;0.90;;
64710;SDS011;51139;45.626;6.850;2023-06-05T10:06:12;2.35;;;1.10;;
64710;SDS011;51139;45.626;6.850;2023-06-05T10:08:39;1.92;;;1.15;;
64710;SDS011;51139;45.626;6.850;2023-06-05T10:11:04;1.42;;;1.10;;
64710;SDS011;51139;45.626;6.850;2023-06-05T10:13:32;1.95;;;1.17;;
64710;SDS011;51139;45.626;6.850;2023-06-05T10:15:58;1.58;;;1.08;;
64710;SDS011;51139;45.626;6.850;2023-06-05T10:18:24;2.28;;;1.13;;
64710;SDS011;51139;45.626;6.850;2023-06-05T10:20:49;1.38;;;1.00;;
64710;SDS011;51139;45.626;6.850;2023-06-05T10:23:15;1.73;;;1.10;;
64710;SDS011;51139;45.626;6.850;2023-06-05T10:25:43;2.05;;;1.40;;
64710;SDS011;51139;45.626;6.850;2023-06-05T10:39:09;1.98;;;1.00;;
64710;SDS011;51139;45.626;6.850;2023-06-05T10:41:36;1.17;;;1.02;;
64710;SDS011;51139;45.626;6.850;2023-06-05T10:44:02;2.45;;;1.15;;
64710;SDS011;51139;45.626;6.850;2023-06-05T10:46:34;1.60;;;1.02;;
64710;SDS011;51139;45.626;6.850;2023-06-05T10:54:10;2.13;;;1.30;;
64710;SDS011;51139;45.626;6.850;2023-06-05T11:15:11;2.05;;;1.23;;
64710;SDS011;51139;45.626;6.850;2023-06-05T11:17:39;2.50;;;1.13;;
64710;SDS011;51139;45.626;6.850;2023-06-05T11:20:07;1.30;;;1.00;;
64710;SDS011;51139;45.626;6.850;2023-06-05T11:23:06;1.80;;;1.40;;
64710;SDS011;51139;45.626;6.850;2023-06-05T11:30:26;1.70;;;1.20;;
64710;SDS011;51139;45.626;6.850;2023-06-05T11:33:05;1.88;;;1.30;;
64710;SDS011;51139;45.626;6.850;2023-06-05T11:35:33;1.88;;;1.27;;
64710;SDS011;51139;45.626;6.850;2023-06-05T11:38:06;1.67;;;1.35;;
64710;SDS011;51139;45.626;6.850;2023-06-05T11:40:39;2.78;;;1.65;;
64710;SDS011;51139;45.626;6.850;2023-06-05T11:43:09;2.05;;;1.35;;
64710;SDS011;51139;45.626;6.850;2023-06-05T11:48:09;1.95;;;1.38;;
64710;SDS011;51139;45.626;6.850;2023-06-05T11:51:00;2.40;;;1.45;;
64710;SDS011;51139;45.626;6.850;2023-06-05T11:53:29;2.50;;;1.67;;
64710;SDS011;51139;45.626;6.850;2023-06-05T11:55:56;2.38;;;1.40;;
64710;SDS011;51139;45.626;6.850;2023-06-05T11:58:28;2.72;;;1.40;;
64710;SDS011;51139;45.626;6.850;2023-06-05T12:03:40;2.47;;;1.60;;
64710;SDS011;51139;45.626;6.850;2023-06-05T12:06:06;2.67;;;1.70;;
64710;SDS011;51139;45.626;6.850;2023-06-05T12:08:32;1.98;;;1.50;;
64710;SDS011;51139;45.626;6.850;2023-06-05T12:11:18;2.47;;;1.70;;
64710;SDS011;51139;45.626;6.850;2023-06-05T12:13:48;2.25;;;1.58;;
64710;SDS011;51139;45.626;6.850;2023-06-05T12:16:14;2.25;;;1.50;;
64710;SDS011;51139;45.626;6.850;2023-06-05T12:18:41;4.10;;;1.50;;
64710;SDS011;51139;45.626;6.850;2023-06-05T12:21:07;2.08;;;1.48;;
64710;SDS011;51139;45.626;6.850;2023-06-05T12:23:44;2.47;;;1.48;;
64710;SDS011;51139;45.626;6.850;2023-06-05T12:26:09;4.18;;;1.58;;
64710;SDS011;51139;45.626;6.850;2023-06-05T12:28:36;2.38;;;1.67;;
64710;SDS011;51139;45.626;6.850;2023-06-05T12:31:02;4.80;;;2.00;;
64710;SDS011;51139;45.626;6.850;2023-06-05T12:33:28;3.33;;;1.60;;
64710;SDS011;51139;45.626;6.850;2023-06-05T12:36:03;2.30;;;1.50;;
64710;SDS011;51139;45.626;6.850;2023-06-05T12:38:37;3.05;;;1.77;;
64710;SDS011;51139;45.626;6.850;2023-06-05T12:41:04;2.25;;;1.65;;
64710;SDS011;51139;45.626;6.850;2023-06-05T12:43:31;2.38;;;1.65;;
64710;SDS011;51139;45.626;6.850;2023-06-05T12:45:57;2.97;;;1.60;;
64710;SDS011;51139;45.626;6.850;2023-06-05T12:48:23;2.25;;;1.42;;
64710;SDS011;51139;45.626;6.850;2023-06-05T12:50:48;2.60;;;1.80;;
64710;SDS011;51139;45.626;6.850;2023-06-05T12:53:14;2.33;;;1.50;;
64710;SDS011;51139;45.626;6.850;2023-06-05T12:55:39;2.78;;;1.70;;
64710;SDS011;51139;45.626;6.850;2023-06-05T12:58:06;2.90;;;1.67;;
64710;SDS011;51139;45.626;6.850;2023-06-05T13:00:31;2.72;;;1.75;;
64710;SDS011;51139;45.626;6.850;2023-06-05T13:02:57;2.40;;;1.95;;
64710;SDS011;51139;45.626;6.850;2023-06-05T13:05:22;2.28;;;1.42;;
64710;SDS011;51139;45.626;6.850;2023-06-05T13:07:48;3.00;;;1.85;;
64710;SDS011;51139;45.626;6.850;2023-06-05T13:10:16;2.70;;;1.85;;
64710;SDS011;51139;45.626;6.850;2023-06-05T13:12:41;3.75;;;2.38;;
64710;SDS011;51139;45.626;6.850;2023-06-05T13:15:07;2.88;;;1.92;;
64710;SDS011;51139;45.626;6.850;2023-06-05T13:17:33;4.00;;;2.28;;
64710;SDS011;51139;45.626;6.850;2023-06-05T13:20:00;4.75;;;2.05;;
64710;SDS011;51139;45.626;6.850;2023-06-05T13:22:31;3.05;;;1.95;;
64710;SDS011;51139;45.626;6.850;2023-06-05T13:24:56;3.50;;;2.13;;
64710;SDS011;51139;45.626;6.850;2023-06-05T13:27:21;2.92;;;2.00;;
64710;SDS011;51139;45.626;6.850;2023-06-05T13:29:47;2.85;;;1.95;;
64710;SDS011;51139;45.626;6.850;2023-06-05T13:32:12;3.15;;;2.25;;
64710;SDS011;51139;45.626;6.850;2023-06-05T13:34:38;3.00;;;2.20;;
64710;SDS011;51139;45.626;6.850;2023-06-05T13:37:03;3.38;;;2.35;;
64710;SDS011;51139;45.626;6.850;2023-06-05T13:39:28;3.97;;;2.55;;
64710;SDS011;51139;45.626;6.850;2023-06-05T13:41:54;4.85;;;2.30;;
64710;SDS011;51139;45.626;6.850;2023-06-05T13:44:20;3.08;;;2.22;;
64710;SDS011;51139;45.626;6.850;2023-06-05T13:46:45;3.33;;;2.08;;
64710;SDS011;51139;45.626;6.850;2023-06-05T13:49:11;3.85;;;1.85;;
64710;SDS011;51139;45.626;6.850;2023-06-05T13:51:36;3.50;;;2.40;;
64710;SDS011;51139;45.626;6.850;2023-06-05T13:54:03;3.90;;;2.30;;
64710;SDS011;51139;45.626;6.850;2023-06-05T13:56:29;3.47;;;2.42;;
64710;SDS011;51139;45.626;6.850;2023-06-05T13:58:54;2.80;;;2.10;;
64710;SDS011;51139;45.626;6.850;2023-06-05T14:01:22;3.22;;;2.28;;
64710;SDS011;51139;45.626;6.850;2023-06-05T14:03:47;4.57;;;2.50;;
64710;SDS011;51139;45.626;6.850;2023-06-05T14:06:13;3.40;;;2.10;;
64710;SDS011;51139;45.626;6.850;2023-06-05T14:08:38;2.90;;;2.20;;
64710;SDS011;51139;45.626;6.850;2023-06-05T14:11:03;3.47;;;2.20;;
64710;SDS011;51139;45.626;6.850;2023-06-05T14:13:29;3.15;;;1.90;;
64710;SDS011;51139;45.626;6.850;2023-06-05T14:15:55;5.53;;;2.00;;
64710;SDS011;51139;45.626;6.850;2023-06-05T14:18:20;3.25;;;1.70;;
64710;SDS011;51139;45.626;6.850;2023-06-05T14:20:46;3.58;;;2.05;;
64710;SDS011;51139;45.626;6.850;2023-06-05T14:23:11;5.05;;;2.00;;
64710;SDS011;51139;45.626;6.850;2023-06-05T14:25:37;3.20;;;1.95;;
64710;SDS011;51139;45.626;6.850;2023-06-05T14:28:02;3.53;;;1.80;;
64710;SDS011;51139;45.626;6.850;2023-06-05T14:30:28;2.75;;;1.80;;
64710;SDS011;51139;45.626;6.850;2023-06-05T14:32:53;2.25;;;1.63;;
64710;SDS011;51139;45.626;6.850;2023-06-05T14:35:20;3.72;;;2.15;;
64710;SDS011;51139;45.626;6.850;2023-06-05T14:37:46;3.53;;;1.88;;
64710;SDS011;51139;45.626;6.850;2023-06-05T14:40:11;2.60;;;1.90;;
64710;SDS011;51139;45.626;6.850;2023-06-05T14:42:37;3.88;;;2.10;;
64710;SDS011;51139;45.626;6.850;2023-06-05T14:45:03;3.83;;;1.90;;
64710;SDS011;51139;45.626;6.850;2023-06-05T14:47:29;2.60;;;1.65;;
64710;SDS011;51139;45.626;6.850;2023-06-05T14:49:55;4.28;;;1.90;;
64710;SDS011;51139;45.626;6.850;2023-06-05T14:52:20;4.40;;;2.10;;
64710;SDS011;51139;45.626;6.850;2023-06-05T14:54:45;3.53;;;1.90;;
64710;SDS011;51139;45.626;6.850;2023-06-05T14:57:11;2.53;;;1.80;;
64710;SDS011;51139;45.626;6.850;2023-06-05T14:59:36;4.20;;;2.20;;
64710;SDS011;51139;45.626;6.850;2023-06-05T15:02:03;3.85;;;2.30;;
64710;SDS011;51139;45.626;6.850;2023-06-05T15:04:28;2.92;;;1.83;;
64710;SDS011;51139;45.626;6.850;2023-06-05T15:06:54;4.38;;;2.20;;
64710;SDS011;51139;45.626;6.850;2023-06-05T15:09:20;3.38;;;2.17;;
64710;SDS011;51139;45.626;6.850;2023-06-05T15:11:46;3.95;;;1.90;;
64710;SDS011;51139;45.626;6.850;2023-06-05T15:14:11;3.67;;;2.17;;
64710;SDS011;51139;45.626;6.850;2023-06-05T15:16:37;3.97;;;2.25;;
64710;SDS011;51139;45.626;6.850;2023-06-05T15:19:02;4.28;;;1.95;;
64710;SDS011;51139;45.626;6.850;2023-06-05T15:21:28;3.72;;;2.08;;
64710;SDS011;51139;45.626;6.850;2023-06-05T15:23:53;3.75;;;2.00;;
64710;SDS011;51139;45.626;6.850;2023-06-05T15:26:20;4.10;;;2.20;;
64710;SDS011;51139;45.626;6.850;2023-06-05T15:28:46;2.92;;;2.15;;
64710;SDS011;51139;45.626;6.850;2023-06-05T15:31:12;3.78;;;2.20;;
64710;SDS011;51139;45.626;6.850;2023-06-05T15:33:37;5.97;;;2.90;;
64710;SDS011;51139;45.626;6.850;2023-06-05T15:36:02;4.03;;;2.63;;
64710;SDS011;51139;45.626;6.850;2023-06-05T15:38:28;5.80;;;2.65;;
64710;SDS011;51139;45.626;6.850;2023-06-05T15:40:54;4.13;;;2.67;;